La Fayette, Illinois
Current Conditions -  °F | °C
As of 7:35 AM on Wednesday 22 Oct 2014 (Local Time) from KGBG Reporting Station
Clear Clear  
Wind Chill: 33°   Ceiling: Unl
Heat Index: 37°   Visibility: 7mi
Dew Point: 35°   Wind: 5mph
Humidity: 96%   Direction: 90°E
Pressure: 30.31"   Gusts: NA
Location:  41.11°N, 89.97°W
Report Text: KGBG 221235Z AUTO 09004KT 7SM CLR 03/02 A3031 RMK AO2 T00250019
Loading
Personal Weather Stations






























Interactive Weather Map New forecast layout! Learn more

10-Day Weather Forecast

Advertisements
Track Severe Weather on mobile